sensor_id;sensor_type;location;lat;lon;timestamp;P1;durP1;ratioP1;P2;durP2;ratioP2
62179;SDS011;48172;53.374;10.722;2022-08-11T00:01:56;4.22;;;3.13;;
62179;SDS011;48172;53.374;10.722;2022-08-11T00:04:24;3.78;;;3.25;;
62179;SDS011;48172;53.374;10.722;2022-08-11T00:06:52;3.42;;;2.95;;
62179;SDS011;48172;53.374;10.722;2022-08-11T00:09:22;3.92;;;2.95;;
62179;SDS011;48172;53.374;10.722;2022-08-11T00:12:11;4.13;;;2.75;;
62179;SDS011;48172;53.374;10.722;2022-08-11T00:14:39;4.15;;;2.80;;
62179;SDS011;48172;53.374;10.722;2022-08-11T00:17:10;3.63;;;3.15;;
62179;SDS011;48172;53.374;10.722;2022-08-11T00:19:39;3.67;;;3.03;;
62179;SDS011;48172;53.374;10.722;2022-08-11T00:22:29;3.42;;;3.05;;
62179;SDS011;48172;53.374;10.722;2022-08-11T00:24:58;3.75;;;3.08;;
62179;SDS011;48172;53.374;10.722;2022-08-11T00:27:34;3.90;;;3.08;;
62179;SDS011;48172;53.374;10.722;2022-08-11T00:30:03;3.28;;;2.90;;
62179;SDS011;48172;53.374;10.722;2022-08-11T00:32:31;3.65;;;2.90;;
62179;SDS011;48172;53.374;10.722;2022-08-11T00:34:59;4.15;;;2.95;;
62179;SDS011;48172;53.374;10.722;2022-08-11T00:37:47;3.72;;;2.85;;
62179;SDS011;48172;53.374;10.722;2022-08-11T00:40:22;3.88;;;3.47;;
62179;SDS011;48172;53.374;10.722;2022-08-11T00:45:49;3.55;;;2.80;;
62179;SDS011;48172;53.374;10.722;2022-08-11T01:00:13;3.20;;;2.65;;
62179;SDS011;48172;53.374;10.722;2022-08-11T01:05:44;3.47;;;2.78;;
62179;SDS011;48172;53.374;10.722;2022-08-11T01:32:03;3.15;;;2.75;;
62179;SDS011;48172;53.374;10.722;2022-08-11T02:10:57;2.53;;;2.13;;
62179;SDS011;48172;53.374;10.722;2022-08-11T02:13:59;3.40;;;2.47;;
62179;SDS011;48172;53.374;10.722;2022-08-11T02:19:35;3.10;;;2.40;;
62179;SDS011;48172;53.374;10.722;2022-08-11T02:25:28;2.35;;;2.05;;
62179;SDS011;48172;53.374;10.722;2022-08-11T02:28:04;2.20;;;2.00;;
62179;SDS011;48172;53.374;10.722;2022-08-11T02:31:02;2.50;;;2.25;;
62179;SDS011;48172;53.374;10.722;2022-08-11T02:42:32;2.40;;;2.15;;
62179;SDS011;48172;53.374;10.722;2022-08-11T02:47:57;3.38;;;2.60;;
62179;SDS011;48172;53.374;10.722;2022-08-11T02:51:02;2.83;;;2.35;;
62179;SDS011;48172;53.374;10.722;2022-08-11T02:56:40;2.25;;;1.85;;
62179;SDS011;48172;53.374;10.722;2022-08-11T03:10:24;3.08;;;2.35;;
62179;SDS011;48172;53.374;10.722;2022-08-11T03:16:20;2.45;;;2.13;;
62179;SDS011;48172;53.374;10.722;2022-08-11T03:21:47;2.08;;;1.80;;
62179;SDS011;48172;53.374;10.722;2022-08-11T03:27:27;2.75;;;2.38;;
62179;SDS011;48172;53.374;10.722;2022-08-11T03:33:05;2.20;;;1.90;;
62179;SDS011;48172;53.374;10.722;2022-08-11T03:36:05;2.33;;;2.13;;
62179;SDS011;48172;53.374;10.722;2022-08-11T03:44:42;2.22;;;2.03;;
62179;SDS011;48172;53.374;10.722;2022-08-11T03:52:52;2.22;;;2.00;;
62179;SDS011;48172;53.374;10.722;2022-08-11T04:06:46;2.10;;;1.90;;
62179;SDS011;48172;53.374;10.722;2022-08-11T04:09:39;2.17;;;1.92;;
62179;SDS011;48172;53.374;10.722;2022-08-11T04:12:37;2.25;;;1.95;;
62179;SDS011;48172;53.374;10.722;2022-08-11T04:15:30;2.17;;;1.95;;
62179;SDS011;48172;53.374;10.722;2022-08-11T04:36:34;3.17;;;2.30;;
62179;SDS011;48172;53.374;10.722;2022-08-11T04:45:39;1.85;;;1.60;;
62179;SDS011;48172;53.374;10.722;2022-08-11T04:55:51;2.30;;;1.80;;
62179;SDS011;48172;53.374;10.722;2022-08-11T05:10:47;2.75;;;1.92;;
62179;SDS011;48172;53.374;10.722;2022-08-11T05:13:26;1.70;;;1.60;;
62179;SDS011;48172;53.374;10.722;2022-08-11T05:16:15;2.28;;;2.08;;
62179;SDS011;48172;53.374;10.722;2022-08-11T05:19:03;2.13;;;1.73;;
62179;SDS011;48172;53.374;10.722;2022-08-11T05:21:55;2.00;;;1.80;;
62179;SDS011;48172;53.374;10.722;2022-08-11T05:24:42;1.90;;;1.70;;
62179;SDS011;48172;53.374;10.722;2022-08-11T05:27:31;3.22;;;2.33;;
62179;SDS011;48172;53.374;10.722;2022-08-11T05:30:26;4.70;;;2.42;;
62179;SDS011;48172;53.374;10.722;2022-08-11T05:36:39;6.18;;;2.80;;
62179;SDS011;48172;53.374;10.722;2022-08-11T05:39:13;4.15;;;2.60;;
62179;SDS011;48172;53.374;10.722;2022-08-11T05:42:03;5.22;;;2.78;;
62179;SDS011;48172;53.374;10.722;2022-08-11T05:45:00;5.30;;;3.00;;
62179;SDS011;48172;53.374;10.722;2022-08-11T05:47:49;5.32;;;2.70;;
62179;SDS011;48172;53.374;10.722;2022-08-11T05:50:34;5.55;;;2.63;;
62179;SDS011;48172;53.374;10.722;2022-08-11T05:53:20;6.80;;;2.72;;
62179;SDS011;48172;53.374;10.722;2022-08-11T05:56:11;5.05;;;2.90;;
62179;SDS011;48172;53.374;10.722;2022-08-11T05:58:44;3.70;;;2.30;;
62179;SDS011;48172;53.374;10.722;2022-08-11T06:01:26;6.32;;;2.70;;
62179;SDS011;48172;53.374;10.722;2022-08-11T06:03:59;6.50;;;2.95;;
62179;SDS011;48172;53.374;10.722;2022-08-11T06:12:07;5.00;;;2.65;;
62179;SDS011;48172;53.374;10.722;2022-08-11T06:14:42;5.00;;;2.90;;
62179;SDS011;48172;53.374;10.722;2022-08-11T06:17:11;8.40;;;2.55;;
62179;SDS011;48172;53.374;10.722;2022-08-11T06:19:39;5.20;;;2.63;;
62179;SDS011;48172;53.374;10.722;2022-08-11T06:22:09;4.55;;;2.63;;
62179;SDS011;48172;53.374;10.722;2022-08-11T06:24:40;7.03;;;2.55;;
62179;SDS011;48172;53.374;10.722;2022-08-11T06:27:21;4.68;;;2.35;;
62179;SDS011;48172;53.374;10.722;2022-08-11T06:29:54;7.55;;;2.58;;
62179;SDS011;48172;53.374;10.722;2022-08-11T06:32:22;3.40;;;2.20;;
62179;SDS011;48172;53.374;10.722;2022-08-11T06:43:18;5.97;;;2.60;;
62179;SDS011;48172;53.374;10.722;2022-08-11T06:48:17;3.38;;;2.60;;
62179;SDS011;48172;53.374;10.722;2022-08-11T06:50:47;4.88;;;2.60;;
62179;SDS011;48172;53.374;10.722;2022-08-11T06:53:38;6.90;;;3.78;;
62179;SDS011;48172;53.374;10.722;2022-08-11T06:56:29;27.40;;;24.90;;
62179;SDS011;48172;53.374;10.722;2022-08-11T06:59:42;133.68;;;120.78;;
62179;SDS011;48172;53.374;10.722;2022-08-11T07:02:32;85.90;;;78.03;;
62179;SDS011;48172;53.374;10.722;2022-08-11T07:05:04;50.72;;;46.15;;
62179;SDS011;48172;53.374;10.722;2022-08-11T07:07:45;30.77;;;27.92;;
62179;SDS011;48172;53.374;10.722;2022-08-11T07:14:01;22.75;;;20.70;;
62179;SDS011;48172;53.374;10.722;2022-08-11T07:16:48;20.85;;;18.98;;
62179;SDS011;48172;53.374;10.722;2022-08-11T07:19:18;20.20;;;18.50;;
62179;SDS011;48172;53.374;10.722;2022-08-11T07:22:08;17.73;;;16.13;;
62179;SDS011;48172;53.374;10.722;2022-08-11T07:24:56;15.57;;;14.07;;
62179;SDS011;48172;53.374;10.722;2022-08-11T07:27:45;14.43;;;12.93;;
62179;SDS011;48172;53.374;10.722;2022-08-11T07:30:34;13.10;;;11.90;;
62179;SDS011;48172;53.374;10.722;2022-08-11T07:33:04;11.77;;;10.55;;
62179;SDS011;48172;53.374;10.722;2022-08-11T07:35:36;10.75;;;9.75;;
62179;SDS011;48172;53.374;10.722;2022-08-11T07:38:10;10.48;;;9.48;;
62179;SDS011;48172;53.374;10.722;2022-08-11T07:40:48;9.32;;;8.52;;
62179;SDS011;48172;53.374;10.722;2022-08-11T07:43:15;9.35;;;8.45;;
62179;SDS011;48172;53.374;10.722;2022-08-11T07:45:43;8.90;;;7.68;;
62179;SDS011;48172;53.374;10.722;2022-08-11T07:48:29;7.55;;;6.90;;
62179;SDS011;48172;53.374;10.722;2022-08-11T07:51:20;7.45;;;6.75;;
62179;SDS011;48172;53.374;10.722;2022-08-11T07:54:05;6.95;;;6.25;;
62179;SDS011;48172;53.374;10.722;2022-08-11T07:56:42;6.63;;;5.90;;
62179;SDS011;48172;53.374;10.722;2022-08-11T07:59:30;5.75;;;5.22;;
62179;SDS011;48172;53.374;10.722;2022-08-11T08:02:30;8.02;;;5.00;;
62179;SDS011;48172;53.374;10.722;2022-08-11T08:05:15;4.82;;;4.32;;
62179;SDS011;48172;53.374;10.722;2022-08-11T08:08:02;6.00;;;4.53;;
62179;SDS011;48172;53.374;10.722;2022-08-11T08:10:48;7.38;;;4.90;;
62179;SDS011;48172;53.374;10.722;2022-08-11T08:13:33;5.07;;;4.07;;
62179;SDS011;48172;53.374;10.722;2022-08-11T08:16:19;4.22;;;3.85;;
62179;SDS011;48172;53.374;10.722;2022-08-11T08:19:05;5.78;;;3.72;;
62179;SDS011;48172;53.374;10.722;2022-08-11T08:21:31;4.07;;;3.53;;
62179;SDS011;48172;53.374;10.722;2022-08-11T08:23:58;6.90;;;3.40;;
62179;SDS011;48172;53.374;10.722;2022-08-11T08:26:26;4.78;;;3.25;;
62179;SDS011;48172;53.374;10.722;2022-08-11T08:29:17;3.80;;;3.00;;
62179;SDS011;48172;53.374;10.722;2022-08-11T08:32:03;3.35;;;3.00;;
62179;SDS011;48172;53.374;10.722;2022-08-11T08:34:33;3.40;;;2.63;;
62179;SDS011;48172;53.374;10.722;2022-08-11T08:37:02;2.58;;;2.38;;
62179;SDS011;48172;53.374;10.722;2022-08-11T08:39:51;3.88;;;2.83;;
62179;SDS011;48172;53.374;10.722;2022-08-11T08:42:19;5.07;;;2.60;;
62179;SDS011;48172;53.374;10.722;2022-08-11T08:44:55;5.57;;;2.78;;
62179;SDS011;48172;53.374;10.722;2022-08-11T08:50:13;3.17;;;2.60;;
62179;SDS011;48172;53.374;10.722;2022-08-11T08:52:46;4.55;;;2.55;;
62179;SDS011;48172;53.374;10.722;2022-08-11T08:55:19;3.72;;;2.38;;
62179;SDS011;48172;53.374;10.722;2022-08-11T08:57:48;3.75;;;2.80;;
62179;SDS011;48172;53.374;10.722;2022-08-11T09:00:16;2.63;;;2.25;;
62179;SDS011;48172;53.374;10.722;2022-08-11T09:05:16;4.20;;;2.50;;
62179;SDS011;48172;53.374;10.722;2022-08-11T09:07:44;3.53;;;2.67;;
62179;SDS011;48172;53.374;10.722;2022-08-11T09:10:16;2.97;;;2.45;;
62179;SDS011;48172;53.374;10.722;2022-08-11T09:12:45;2.35;;;2.10;;
62179;SDS011;48172;53.374;10.722;2022-08-11T09:15:13;2.80;;;2.13;;
62179;SDS011;48172;53.374;10.722;2022-08-11T09:17:46;3.00;;;2.13;;
62179;SDS011;48172;53.374;10.722;2022-08-11T09:20:23;3.33;;;2.13;;
62179;SDS011;48172;53.374;10.722;2022-08-11T09:22:55;2.55;;;2.35;;
62179;SDS011;48172;53.374;10.722;2022-08-11T09:26:02;3.17;;;2.35;;
62179;SDS011;48172;53.374;10.722;2022-08-11T09:28:55;2.33;;;2.13;;
62179;SDS011;48172;53.374;10.722;2022-08-11T09:31:24;2.58;;;2.20;;
62179;SDS011;48172;53.374;10.722;2022-08-11T09:33:52;4.15;;;2.08;;
62179;SDS011;48172;53.374;10.722;2022-08-11T09:36:20;2.90;;;2.05;;
62179;SDS011;48172;53.374;10.722;2022-08-11T09:39:06;2.20;;;2.00;;
62179;SDS011;48172;53.374;10.722;2022-08-11T09:41:52;3.78;;;2.35;;
62179;SDS011;48172;53.374;10.722;2022-08-11T09:44:28;3.03;;;2.20;;
62179;SDS011;48172;53.374;10.722;2022-08-11T09:49:57;2.15;;;1.90;;
62179;SDS011;48172;53.374;10.722;2022-08-11T09:52:26;2.45;;;2.10;;
62179;SDS011;48172;53.374;10.722;2022-08-11T09:54:56;2.38;;;2.03;;
62179;SDS011;48172;53.374;10.722;2022-08-11T09:57:24;2.53;;;1.95;;
62179;SDS011;48172;53.374;10.722;2022-08-11T10:00:10;7.05;;;2.53;;
62179;SDS011;48172;53.374;10.722;2022-08-11T10:02:48;16.52;;;4.35;;
62179;SDS011;48172;53.374;10.722;2022-08-11T10:05:18;25.92;;;4.07;;
62179;SDS011;48172;53.374;10.722;2022-08-11T10:08:05;17.48;;;3.85;;
62179;SDS011;48172;53.374;10.722;2022-08-11T10:10:37;19.98;;;4.05;;
62179;SDS011;48172;53.374;10.722;2022-08-11T10:13:06;18.10;;;3.65;;
62179;SDS011;48172;53.374;10.722;2022-08-11T10:16:01;13.98;;;3.90;;
62179;SDS011;48172;53.374;10.722;2022-08-11T10:18:41;11.90;;;3.47;;
62179;SDS011;48172;53.374;10.722;2022-08-11T10:21:25;15.63;;;3.10;;
62179;SDS011;48172;53.374;10.722;2022-08-11T10:23:57;6.78;;;3.35;;
62179;SDS011;48172;53.374;10.722;2022-08-11T10:27:01;15.48;;;3.60;;
62179;SDS011;48172;53.374;10.722;2022-08-11T10:29:32;10.88;;;2.95;;
62179;SDS011;48172;53.374;10.722;2022-08-11T10:32:23;11.85;;;2.83;;
62179;SDS011;48172;53.374;10.722;2022-08-11T10:35:24;10.05;;;2.70;;
62179;SDS011;48172;53.374;10.722;2022-08-11T10:37:52;9.20;;;3.00;;
62179;SDS011;48172;53.374;10.722;2022-08-11T10:40:35;12.80;;;3.08;;
62179;SDS011;48172;53.374;10.722;2022-08-11T10:43:04;9.93;;;3.03;;
62179;SDS011;48172;53.374;10.722;2022-08-11T10:45:37;9.10;;;2.95;;
62179;SDS011;48172;53.374;10.722;2022-08-11T10:48:40;9.48;;;2.70;;
62179;SDS011;48172;53.374;10.722;2022-08-11T10:51:07;11.40;;;3.05;;
62179;SDS011;48172;53.374;10.722;2022-08-11T10:53:42;6.85;;;2.50;;
62179;SDS011;48172;53.374;10.722;2022-08-11T10:56:30;5.75;;;2.85;;
62179;SDS011;48172;53.374;10.722;2022-08-11T10:59:18;8.20;;;2.60;;
62179;SDS011;48172;53.374;10.722;2022-08-11T11:01:46;4.95;;;2.65;;
62179;SDS011;48172;53.374;10.722;2022-08-11T11:04:14;6.93;;;2.40;;
62179;SDS011;48172;53.374;10.722;2022-08-11T11:09:49;5.15;;;2.83;;
62179;SDS011;48172;53.374;10.722;2022-08-11T11:12:40;5.95;;;2.33;;
62179;SDS011;48172;53.374;10.722;2022-08-11T11:15:26;9.70;;;2.20;;
62179;SDS011;48172;53.374;10.722;2022-08-11T11:18:20;5.88;;;2.33;;
62179;SDS011;48172;53.374;10.722;2022-08-11T11:20:57;5.18;;;2.40;;
62179;SDS011;48172;53.374;10.722;2022-08-11T11:29:18;6.53;;;2.00;;
62179;SDS011;48172;53.374;10.722;2022-08-11T11:32:14;3.17;;;1.95;;
62179;SDS011;48172;53.374;10.722;2022-08-11T11:37:52;6.10;;;2.50;;
62179;SDS011;48172;53.374;10.722;2022-08-11T11:40:30;4.13;;;2.30;;
62179;SDS011;48172;53.374;10.722;2022-08-11T11:42:58;4.25;;;2.10;;
62179;SDS011;48172;53.374;10.722;2022-08-11T11:45:26;5.10;;;2.15;;
62179;SDS011;48172;53.374;10.722;2022-08-11T11:47:53;4.25;;;2.20;;
62179;SDS011;48172;53.374;10.722;2022-08-11T11:50:25;4.35;;;2.20;;
62179;SDS011;48172;53.374;10.722;2022-08-11T11:52:58;2.47;;;1.73;;
62179;SDS011;48172;53.374;10.722;2022-08-11T11:55:27;3.60;;;2.13;;
62179;SDS011;48172;53.374;10.722;2022-08-11T11:57:55;5.72;;;2.00;;
62179;SDS011;48172;53.374;10.722;2022-08-11T12:00:44;2.22;;;1.70;;
62179;SDS011;48172;53.374;10.722;2022-08-11T12:03:31;3.20;;;2.10;;
62179;SDS011;48172;53.374;10.722;2022-08-11T12:05:59;2.88;;;1.98;;
62179;SDS011;48172;53.374;10.722;2022-08-11T12:08:26;2.50;;;1.80;;
62179;SDS011;48172;53.374;10.722;2022-08-11T12:11:00;2.25;;;1.80;;
62179;SDS011;48172;53.374;10.722;2022-08-11T12:13:51;4.28;;;2.10;;
62179;SDS011;48172;53.374;10.722;2022-08-11T12:16:19;4.50;;;2.42;;
62179;SDS011;48172;53.374;10.722;2022-08-11T12:19:02;6.85;;;2.28;;
62179;SDS011;48172;53.374;10.722;2022-08-11T12:21:31;8.45;;;7.75;;
62179;SDS011;48172;53.374;10.722;2022-08-11T12:24:01;19.20;;;17.70;;
62179;SDS011;48172;53.374;10.722;2022-08-11T12:26:47;24.75;;;22.75;;
62179;SDS011;48172;53.374;10.722;2022-08-11T12:29:34;33.60;;;31.10;;
62179;SDS011;48172;53.374;10.722;2022-08-11T12:32:06;47.17;;;43.38;;
62179;SDS011;48172;53.374;10.722;2022-08-11T12:34:33;46.45;;;42.95;;
62179;SDS011;48172;53.374;10.722;2022-08-11T12:37:01;54.65;;;50.15;;
62179;SDS011;48172;53.374;10.722;2022-08-11T12:39:33;50.97;;;47.08;;
62179;SDS011;48172;53.374;10.722;2022-08-11T12:42:41;54.53;;;50.22;;
62179;SDS011;48172;53.374;10.722;2022-08-11T12:45:33;55.55;;;51.17;;
62179;SDS011;48172;53.374;10.722;2022-08-11T12:48:05;49.67;;;45.88;;
62179;SDS011;48172;53.374;10.722;2022-08-11T12:51:15;41.85;;;38.75;;
62179;SDS011;48172;53.374;10.722;2022-08-11T12:54:32;56.35;;;51.67;;
62179;SDS011;48172;53.374;10.722;2022-08-11T12:57:04;56.00;;;51.70;;
62179;SDS011;48172;53.374;10.722;2022-08-11T13:00:04;66.72;;;61.22;;
62179;SDS011;48172;53.374;10.722;2022-08-11T13:02:50;55.78;;;51.38;;
62179;SDS011;48172;53.374;10.722;2022-08-11T13:05:36;68.30;;;62.50;;
62179;SDS011;48172;53.374;10.722;2022-08-11T13:08:10;71.47;;;65.72;;
62179;SDS011;48172;53.374;10.722;2022-08-11T13:10:41;62.58;;;57.65;;
62179;SDS011;48172;53.374;10.722;2022-08-11T13:13:27;55.97;;;51.63;;
62179;SDS011;48172;53.374;10.722;2022-08-11T13:16:15;49.35;;;45.55;;
62179;SDS011;48172;53.374;10.722;2022-08-11T13:18:42;43.38;;;39.95;;
62179;SDS011;48172;53.374;10.722;2022-08-11T13:21:10;38.83;;;35.92;;
62179;SDS011;48172;53.374;10.722;2022-08-11T13:23:46;35.97;;;33.20;;
62179;SDS011;48172;53.374;10.722;2022-08-11T13:26:30;34.28;;;31.58;;
62179;SDS011;48172;53.374;10.722;2022-08-11T13:29:14;31.95;;;29.55;;
62179;SDS011;48172;53.374;10.722;2022-08-11T13:31:42;27.42;;;25.40;;
62179;SDS011;48172;53.374;10.722;2022-08-11T13:34:09;26.08;;;24.15;;
62179;SDS011;48172;53.374;10.722;2022-08-11T13:36:37;23.90;;;22.00;;
62179;SDS011;48172;53.374;10.722;2022-08-11T13:39:04;20.80;;;19.30;;
62179;SDS011;48172;53.374;10.722;2022-08-11T13:41:31;20.65;;;19.05;;
62179;SDS011;48172;53.374;10.722;2022-08-11T13:44:08;18.45;;;17.05;;
62179;SDS011;48172;53.374;10.722;2022-08-11T13:46:41;17.50;;;16.10;;
62179;SDS011;48172;53.374;10.722;2022-08-11T13:49:09;15.30;;;14.00;;
62179;SDS011;48172;53.374;10.722;2022-08-11T13:51:36;13.20;;;12.25;;
62179;SDS011;48172;53.374;10.722;2022-08-11T13:54:05;13.15;;;12.20;;
62179;SDS011;48172;53.374;10.722;2022-08-11T13:56:38;11.95;;;10.95;;
62179;SDS011;48172;53.374;10.722;2022-08-11T13:59:07;11.55;;;10.65;;
62179;SDS011;48172;53.374;10.722;2022-08-11T14:01:43;10.27;;;9.48;;
62179;SDS011;48172;53.374;10.722;2022-08-11T14:04:36;9.50;;;8.63;;
62179;SDS011;48172;53.374;10.722;2022-08-11T14:07:08;8.27;;;7.68;;
62179;SDS011;48172;53.374;10.722;2022-08-11T14:09:38;8.25;;;7.53;;
62179;SDS011;48172;53.374;10.722;2022-08-11T14:12:08;7.28;;;6.60;;
62179;SDS011;48172;53.374;10.722;2022-08-11T14:15:02;6.80;;;6.15;;
62179;SDS011;48172;53.374;10.722;2022-08-11T14:17:34;7.53;;;5.80;;
62179;SDS011;48172;53.374;10.722;2022-08-11T14:20:15;6.68;;;6.10;;
62179;SDS011;48172;53.374;10.722;2022-08-11T14:23:03;5.30;;;4.90;;
62179;SDS011;48172;53.374;10.722;2022-08-11T14:25:30;5.70;;;5.30;;
62179;SDS011;48172;53.374;10.722;2022-08-11T14:28:17;5.43;;;4.97;;
62179;SDS011;48172;53.374;10.722;2022-08-11T14:30:59;6.80;;;6.10;;
62179;SDS011;48172;53.374;10.722;2022-08-11T14:33:28;5.35;;;4.68;;
62179;SDS011;48172;53.374;10.722;2022-08-11T14:36:16;4.85;;;4.47;;
62179;SDS011;48172;53.374;10.722;2022-08-11T14:38:43;5.63;;;5.20;;
62179;SDS011;48172;53.374;10.722;2022-08-11T14:41:10;5.40;;;5.00;;
62179;SDS011;48172;53.374;10.722;2022-08-11T14:43:55;5.25;;;4.75;;
62179;SDS011;48172;53.374;10.722;2022-08-11T14:46:41;5.07;;;4.68;;
62179;SDS011;48172;53.374;10.722;2022-08-11T14:49:28;4.53;;;4.13;;
62179;SDS011;48172;53.374;10.722;2022-08-11T14:51:55;4.43;;;4.03;;
62179;SDS011;48172;53.374;10.722;2022-08-11T14:54:23;4.80;;;4.40;;
62179;SDS011;48172;53.374;10.722;2022-08-11T14:57:12;4.32;;;3.92;;
62179;SDS011;48172;53.374;10.722;2022-08-11T14:59:38;4.07;;;3.72;;
62179;SDS011;48172;53.374;10.722;2022-08-11T15:02:06;3.50;;;3.20;;
62179;SDS011;48172;53.374;10.722;2022-08-11T15:04:51;4.07;;;3.35;;
62179;SDS011;48172;53.374;10.722;2022-08-11T15:07:21;4.57;;;3.20;;
62179;SDS011;48172;53.374;10.722;2022-08-11T15:09:56;3.85;;;3.17;;
62179;SDS011;48172;53.374;10.722;2022-08-11T15:12:39;3.20;;;2.90;;
62179;SDS011;48172;53.374;10.722;2022-08-11T15:15:09;3.50;;;3.20;;
62179;SDS011;48172;53.374;10.722;2022-08-11T15:18:01;21.23;;;19.52;;
62179;SDS011;48172;53.374;10.722;2022-08-11T15:20:30;35.63;;;32.67;;
62179;SDS011;48172;53.374;10.722;2022-08-11T15:23:19;54.03;;;49.65;;
62179;SDS011;48172;53.374;10.722;2022-08-11T15:26:06;47.58;;;43.78;;
62179;SDS011;48172;53.374;10.722;2022-08-11T15:28:39;34.95;;;32.25;;
62179;SDS011;48172;53.374;10.722;2022-08-11T15:31:29;27.42;;;25.33;;
62179;SDS011;48172;53.374;10.722;2022-08-11T15:34:16;24.88;;;22.88;;
62179;SDS011;48172;53.374;10.722;2022-08-11T15:37:06;25.17;;;23.23;;
62179;SDS011;48172;53.374;10.722;2022-08-11T15:46:18;21.50;;;19.65;;
62179;SDS011;48172;53.374;10.722;2022-08-11T15:48:55;19.42;;;17.98;;
62179;SDS011;48172;53.374;10.722;2022-08-11T15:51:34;18.50;;;17.00;;
62179;SDS011;48172;53.374;10.722;2022-08-11T15:54:04;18.08;;;16.67;;
62179;SDS011;48172;53.374;10.722;2022-08-11T15:56:35;16.83;;;15.50;;
62179;SDS011;48172;53.374;10.722;2022-08-11T15:59:06;15.90;;;14.65;;
62179;SDS011;48172;53.374;10.722;2022-08-11T16:02:10;15.98;;;14.77;;
62179;SDS011;48172;53.374;10.722;2022-08-11T16:04:58;15.27;;;14.18;;
62179;SDS011;48172;53.374;10.722;2022-08-11T16:07:31;14.43;;;13.32;;
62179;SDS011;48172;53.374;10.722;2022-08-11T16:10:09;13.82;;;12.63;;
62179;SDS011;48172;53.374;10.722;2022-08-11T16:18:50;12.63;;;11.70;;
62179;SDS011;48172;53.374;10.722;2022-08-11T16:21:34;11.93;;;10.93;;
62179;SDS011;48172;53.374;10.722;2022-08-11T16:26:55;10.77;;;9.98;;
62179;SDS011;48172;53.374;10.722;2022-08-11T16:29:37;10.85;;;9.95;;
62179;SDS011;48172;53.374;10.722;2022-08-11T16:32:10;10.13;;;9.33;;
62179;SDS011;48172;53.374;10.722;2022-08-11T16:34:44;10.23;;;9.52;;
62179;SDS011;48172;53.374;10.722;2022-08-11T16:37:33;9.43;;;8.73;;
62179;SDS011;48172;53.374;10.722;2022-08-11T16:40:19;9.38;;;8.68;;
62179;SDS011;48172;53.374;10.722;2022-08-11T16:42:48;9.40;;;8.65;;
62179;SDS011;48172;53.374;10.722;2022-08-11T16:45:37;8.35;;;7.75;;
62179;SDS011;48172;53.374;10.722;2022-08-11T16:48:26;8.02;;;7.43;;
62179;SDS011;48172;53.374;10.722;2022-08-11T16:51:04;7.93;;;7.32;;
62179;SDS011;48172;53.374;10.722;2022-08-11T16:57:07;7.07;;;6.57;;
62179;SDS011;48172;53.374;10.722;2022-08-11T16:59:28;7.60;;;7.07;;
62179;SDS011;48172;53.374;10.722;2022-08-11T17:01:58;6.80;;;6.30;;
62179;SDS011;48172;53.374;10.722;2022-08-11T17:04:38;6.55;;;6.05;;
62179;SDS011;48172;53.374;10.722;2022-08-11T17:07:29;6.53;;;6.03;;
62179;SDS011;48172;53.374;10.722;2022-08-11T17:10:18;6.85;;;6.10;;
62179;SDS011;48172;53.374;10.722;2022-08-11T17:13:21;5.53;;;5.13;;
62179;SDS011;48172;53.374;10.722;2022-08-11T17:15:53;6.20;;;5.80;;
62179;SDS011;48172;53.374;10.722;2022-08-11T17:18:57;5.82;;;5.43;;
62179;SDS011;48172;53.374;10.722;2022-08-11T17:24:32;6.03;;;5.47;;
62179;SDS011;48172;53.374;10.722;2022-08-11T17:27:00;5.70;;;5.20;;
62179;SDS011;48172;53.374;10.722;2022-08-11T17:29:32;5.18;;;4.78;;
62179;SDS011;48172;53.374;10.722;2022-08-11T17:32:20;4.55;;;4.25;;
62179;SDS011;48172;53.374;10.722;2022-08-11T17:35:24;4.80;;;4.50;;
62179;SDS011;48172;53.374;10.722;2022-08-11T17:40:37;4.75;;;4.35;;
62179;SDS011;48172;53.374;10.722;2022-08-11T17:43:26;4.68;;;4.20;;
62179;SDS011;48172;53.374;10.722;2022-08-11T17:46:14;4.00;;;3.70;;
62179;SDS011;48172;53.374;10.722;2022-08-11T17:48:59;4.25;;;3.95;;
62179;SDS011;48172;53.374;10.722;2022-08-11T17:51:27;4.25;;;3.83;;
62179;SDS011;48172;53.374;10.722;2022-08-11T17:54:13;4.25;;;3.40;;
62179;SDS011;48172;53.374;10.722;2022-08-11T17:57:01;3.55;;;3.35;;
62179;SDS011;48172;53.374;10.722;2022-08-11T17:59:47;3.80;;;3.50;;
62179;SDS011;48172;53.374;10.722;2022-08-11T18:02:18;4.35;;;3.22;;
62179;SDS011;48172;53.374;10.722;2022-08-11T18:05:08;3.38;;;3.17;;
62179;SDS011;48172;53.374;10.722;2022-08-11T18:07:39;3.50;;;3.20;;
62179;SDS011;48172;53.374;10.722;2022-08-11T18:10:27;3.20;;;3.00;;
62179;SDS011;48172;53.374;10.722;2022-08-11T18:13:15;3.00;;;2.78;;
62179;SDS011;48172;53.374;10.722;2022-08-11T18:16:02;3.55;;;2.90;;
62179;SDS011;48172;53.374;10.722;2022-08-11T18:18:48;3.38;;;3.05;;
62179;SDS011;48172;53.374;10.722;2022-08-11T18:21:34;2.80;;;2.60;;
62179;SDS011;48172;53.374;10.722;2022-08-11T18:24:44;3.28;;;3.03;;
62179;SDS011;48172;53.374;10.722;2022-08-11T18:27:32;2.90;;;2.70;;
62179;SDS011;48172;53.374;10.722;2022-08-11T18:30:18;2.95;;;2.75;;
62179;SDS011;48172;53.374;10.722;2022-08-11T18:33:04;2.90;;;2.70;;
62179;SDS011;48172;53.374;10.722;2022-08-11T18:36:14;2.88;;;2.63;;
62179;SDS011;48172;53.374;10.722;2022-08-11T18:39:03;2.75;;;2.55;;
62179;SDS011;48172;53.374;10.722;2022-08-11T18:41:53;3.47;;;2.47;;
62179;SDS011;48172;53.374;10.722;2022-08-11T18:44:55;2.75;;;2.55;;
62179;SDS011;48172;53.374;10.722;2022-08-11T18:47:49;2.47;;;2.10;;
62179;SDS011;48172;53.374;10.722;2022-08-11T18:50:37;2.60;;;2.40;;
62179;SDS011;48172;53.374;10.722;2022-08-11T18:53:46;2.60;;;2.40;;
62179;SDS011;48172;53.374;10.722;2022-08-11T18:56:35;2.50;;;2.20;;
62179;SDS011;48172;53.374;10.722;2022-08-11T18:59:23;2.97;;;2.20;;
62179;SDS011;48172;53.374;10.722;2022-08-11T19:02:11;2.50;;;2.30;;
62179;SDS011;48172;53.374;10.722;2022-08-11T19:05:14;2.22;;;2.03;;
62179;SDS011;48172;53.374;10.722;2022-08-11T19:08:21;2.28;;;2.08;;
62179;SDS011;48172;53.374;10.722;2022-08-11T19:11:09;2.50;;;2.30;;
62179;SDS011;48172;53.374;10.722;2022-08-11T19:13:56;2.05;;;1.95;;
62179;SDS011;48172;53.374;10.722;2022-08-11T19:16:44;2.88;;;2.30;;
62179;SDS011;48172;53.374;10.722;2022-08-11T19:19:30;2.25;;;2.10;;
62179;SDS011;48172;53.374;10.722;2022-08-11T19:22:19;2.88;;;2.10;;
62179;SDS011;48172;53.374;10.722;2022-08-11T19:25:06;2.47;;;2.13;;
62179;SDS011;48172;53.374;10.722;2022-08-11T19:27:52;2.13;;;1.92;;
62179;SDS011;48172;53.374;10.722;2022-08-11T19:30:38;1.90;;;1.80;;
62179;SDS011;48172;53.374;10.722;2022-08-11T19:33:24;1.92;;;1.70;;
62179;SDS011;48172;53.374;10.722;2022-08-11T19:36:30;1.65;;;1.55;;
62179;SDS011;48172;53.374;10.722;2022-08-11T19:39:17;2.30;;;2.10;;
62179;SDS011;48172;53.374;10.722;2022-08-11T19:42:06;2.10;;;1.95;;
62179;SDS011;48172;53.374;10.722;2022-08-11T19:44:53;2.30;;;1.83;;
62179;SDS011;48172;53.374;10.722;2022-08-11T19:47:40;1.90;;;1.58;;
62179;SDS011;48172;53.374;10.722;2022-08-11T19:50:48;1.63;;;1.50;;
62179;SDS011;48172;53.374;10.722;2022-08-11T19:53:34;1.83;;;1.70;;
62179;SDS011;48172;53.374;10.722;2022-08-11T19:56:20;1.88;;;1.75;;
62179;SDS011;48172;53.374;10.722;2022-08-11T19:59:06;2.10;;;1.90;;
62179;SDS011;48172;53.374;10.722;2022-08-11T20:01:52;1.50;;;1.40;;
62179;SDS011;48172;53.374;10.722;2022-08-11T20:04:40;1.80;;;1.70;;